Fort Simpson Airport
CYFS : now visible

Airfield :











YOU CAN JOIN US ON...

 
LOGIN :

Register | Disclaimer

   EN    FR    IT 

 









Legend :    VFR   Marginal VFR   IFR   Intensive IFR   Very Intensive IFR
Visi :
Ceiling :
>= 8 km
>= 3000ft
5 to 8 km
1000 to 3000 ft
1500m to 5 km
500 to 1000 ft
800 to 1500m
200 to 500 ft
< 800m
< 200 ft
Symbols :   Thunderstorms  Fog  Heavy snow  Heavy precipitations  Wind > 20 kt






- Airport Elevation : 555 ft
- IATA code : YFS


CYFS - Fort Simpson

CURRENT METAR :
  • 192100Z 08005KT 010V130 6SM FU SCT083 SCT110 BKN250 26/09 A3016 RMK FU2AC2AC1CI1 AC TR SLP219 DENSITY ALT 1700FT

EXPIRED METARs :
  • 192000Z 14006KT 100V170 6SM FU SCT120 SCT250 25/09 A3017 RMK FU2AC2CI1 SLP223 DENSITY ALT 1600FT
  • 191900Z VRB02KT 8SM SCT120 BKN250 25/10 A3017 RMK FU2AC2CI1 SLP223 DENSITY ALT 1600FT
  • 191800Z 15005KT 120V180 8SM SCT084 BKN110 BKN250 23/10 A3017 RMK FU2AC1AC3CI1 CI TR FU SLP223 DENSITY ALT 1400FT
  • 191700Z 16004KT 050V180 8SM SCT110 SCT250 23/10 A3017 RMK FU2AC1CI1 CI TR FU SLP223 DENSITY ALT 1400FT

TAF TAF CYFS
Valid from the 19 at 18:00 until the 20 at 06:00 UTC


191740Z 1918/2006 VRB03KT P6SM FEW060 SCT120
TEMPO 1918/2006 5SM FU
BECMG 1918/1920 10006KT RMK NXT FCST BY 200000Z
CZEG FIR / North America



MET'MAP, your aeronautical weather chart ! - Copyright ORBIFLY December 2007 - Disclaimer

ORBIFLY MET'MAP TEAM :

Programming & Development : Alexandra Zaïnal
Original concept : Baudouin d'Aumeries
Technical & hardware support : Manuel Goepfert
Assistance : Marc-Olivier Méhu




SOURCES & CREDITS :

   NOAA       Earth
Advisory